sensor_id;sensor_type;location;lat;lon;timestamp;P1;durP1;ratioP1;P2;durP2;ratioP2
73456;SDS011;61691;53.072;6.582;2023-07-22T00:00:03;21.15;;;7.20;;
73456;SDS011;61691;53.072;6.582;2023-07-22T00:02:32;19.40;;;6.78;;
73456;SDS011;61691;53.072;6.582;2023-07-22T00:04:59;20.42;;;7.20;;
73456;SDS011;61691;53.072;6.582;2023-07-22T00:07:26;19.45;;;6.93;;
73456;SDS011;61691;53.072;6.582;2023-07-22T00:09:53;19.08;;;6.15;;
73456;SDS011;61691;53.072;6.582;2023-07-22T00:12:19;19.05;;;6.95;;
73456;SDS011;61691;53.072;6.582;2023-07-22T00:14:46;22.08;;;6.82;;
73456;SDS011;61691;53.072;6.582;2023-07-22T00:17:14;21.38;;;6.78;;
73456;SDS011;61691;53.072;6.582;2023-07-22T00:19:40;21.13;;;6.60;;
73456;SDS011;61691;53.072;6.582;2023-07-22T00:22:07;19.77;;;6.47;;
73456;SDS011;61691;53.072;6.582;2023-07-22T00:24:34;21.10;;;6.32;;
73456;SDS011;61691;53.072;6.582;2023-07-22T00:27:01;19.80;;;7.10;;
73456;SDS011;61691;53.072;6.582;2023-07-22T00:29:28;19.77;;;5.90;;
73456;SDS011;61691;53.072;6.582;2023-07-22T00:31:55;19.27;;;6.68;;
73456;SDS011;61691;53.072;6.582;2023-07-22T00:34:21;19.35;;;6.53;;
73456;SDS011;61691;53.072;6.582;2023-07-22T00:36:49;18.65;;;6.75;;
73456;SDS011;61691;53.072;6.582;2023-07-22T00:39:16;19.77;;;6.18;;
73456;SDS011;61691;53.072;6.582;2023-07-22T00:41:43;18.50;;;6.47;;
73456;SDS011;61691;53.072;6.582;2023-07-22T00:44:11;18.15;;;5.85;;
73456;SDS011;61691;53.072;6.582;2023-07-22T00:46:39;18.63;;;6.00;;
73456;SDS011;61691;53.072;6.582;2023-07-22T00:49:06;17.55;;;6.00;;
73456;SDS011;61691;53.072;6.582;2023-07-22T00:51:34;18.20;;;6.38;;
73456;SDS011;61691;53.072;6.582;2023-07-22T00:54:01;23.75;;;7.18;;
73456;SDS011;61691;53.072;6.582;2023-07-22T00:56:31;18.52;;;6.22;;
73456;SDS011;61691;53.072;6.582;2023-07-22T00:59:02;21.08;;;6.63;;
73456;SDS011;61691;53.072;6.582;2023-07-22T01:01:29;18.48;;;6.18;;
73456;SDS011;61691;53.072;6.582;2023-07-22T01:03:55;21.83;;;6.55;;
73456;SDS011;61691;53.072;6.582;2023-07-22T01:06:22;19.65;;;6.65;;
73456;SDS011;61691;53.072;6.582;2023-07-22T01:08:51;19.73;;;7.22;;
73456;SDS011;61691;53.072;6.582;2023-07-22T01:11:18;20.98;;;7.13;;
73456;SDS011;61691;53.072;6.582;2023-07-22T01:13:45;20.65;;;6.93;;
73456;SDS011;61691;53.072;6.582;2023-07-22T01:16:11;20.27;;;7.15;;
73456;SDS011;61691;53.072;6.582;2023-07-22T01:18:38;20.45;;;6.78;;
73456;SDS011;61691;53.072;6.582;2023-07-22T01:21:05;21.02;;;7.50;;
73456;SDS011;61691;53.072;6.582;2023-07-22T01:23:33;20.08;;;6.63;;
73456;SDS011;61691;53.072;6.582;2023-07-22T01:26:02;20.33;;;6.90;;
73456;SDS011;61691;53.072;6.582;2023-07-22T01:28:29;18.88;;;6.38;;
73456;SDS011;61691;53.072;6.582;2023-07-22T01:30:56;19.13;;;6.10;;
73456;SDS011;61691;53.072;6.582;2023-07-22T01:33:23;19.73;;;6.55;;
73456;SDS011;61691;53.072;6.582;2023-07-22T01:35:49;20.65;;;6.65;;
73456;SDS011;61691;53.072;6.582;2023-07-22T01:38:16;21.42;;;6.95;;
73456;SDS011;61691;53.072;6.582;2023-07-22T01:40:43;18.33;;;6.07;;
73456;SDS011;61691;53.072;6.582;2023-07-22T01:43:10;18.83;;;6.10;;
73456;SDS011;61691;53.072;6.582;2023-07-22T01:45:36;20.38;;;6.90;;
73456;SDS011;61691;53.072;6.582;2023-07-22T01:48:04;18.25;;;6.63;;
73456;SDS011;61691;53.072;6.582;2023-07-22T01:50:31;18.80;;;6.35;;
73456;SDS011;61691;53.072;6.582;2023-07-22T01:52:58;19.33;;;6.60;;
73456;SDS011;61691;53.072;6.582;2023-07-22T01:55:25;19.88;;;6.25;;
73456;SDS011;61691;53.072;6.582;2023-07-22T01:57:52;17.65;;;6.43;;
73456;SDS011;61691;53.072;6.582;2023-07-22T02:00:19;19.02;;;6.65;;
73456;SDS011;61691;53.072;6.582;2023-07-22T02:02:47;18.83;;;6.38;;
73456;SDS011;61691;53.072;6.582;2023-07-22T02:05:14;20.65;;;6.70;;
73456;SDS011;61691;53.072;6.582;2023-07-22T02:07:41;19.15;;;6.43;;
73456;SDS011;61691;53.072;6.582;2023-07-22T02:10:08;17.95;;;6.07;;
73456;SDS011;61691;53.072;6.582;2023-07-22T02:12:36;19.15;;;7.13;;
73456;SDS011;61691;53.072;6.582;2023-07-22T02:15:03;19.30;;;7.03;;
73456;SDS011;61691;53.072;6.582;2023-07-22T02:17:30;19.80;;;6.45;;
73456;SDS011;61691;53.072;6.582;2023-07-22T02:19:57;18.02;;;5.97;;
73456;SDS011;61691;53.072;6.582;2023-07-22T02:22:24;19.27;;;6.82;;
73456;SDS011;61691;53.072;6.582;2023-07-22T02:24:50;19.98;;;6.40;;
73456;SDS011;61691;53.072;6.582;2023-07-22T02:27:17;18.05;;;6.35;;
73456;SDS011;61691;53.072;6.582;2023-07-22T02:29:44;19.15;;;6.50;;
73456;SDS011;61691;53.072;6.582;2023-07-22T02:32:10;19.80;;;6.65;;
73456;SDS011;61691;53.072;6.582;2023-07-22T02:34:37;19.00;;;6.78;;
73456;SDS011;61691;53.072;6.582;2023-07-22T02:37:04;19.27;;;6.25;;
73456;SDS011;61691;53.072;6.582;2023-07-22T02:39:31;17.77;;;6.55;;
73456;SDS011;61691;53.072;6.582;2023-07-22T02:41:57;19.55;;;6.07;;
73456;SDS011;61691;53.072;6.582;2023-07-22T02:44:24;20.20;;;6.15;;
73456;SDS011;61691;53.072;6.582;2023-07-22T02:46:51;20.50;;;6.32;;
73456;SDS011;61691;53.072;6.582;2023-07-22T02:49:18;18.52;;;6.30;;
73456;SDS011;61691;53.072;6.582;2023-07-22T02:51:45;18.42;;;6.47;;
73456;SDS011;61691;53.072;6.582;2023-07-22T02:54:11;19.02;;;6.47;;
73456;SDS011;61691;53.072;6.582;2023-07-22T02:56:38;18.77;;;6.28;;
73456;SDS011;61691;53.072;6.582;2023-07-22T02:59:05;20.55;;;5.50;;
73456;SDS011;61691;53.072;6.582;2023-07-22T03:01:31;18.40;;;6.07;;
73456;SDS011;61691;53.072;6.582;2023-07-22T03:03:59;18.92;;;7.00;;
73456;SDS011;61691;53.072;6.582;2023-07-22T03:06:25;18.25;;;6.07;;
73456;SDS011;61691;53.072;6.582;2023-07-22T03:08:53;18.17;;;5.57;;
73456;SDS011;61691;53.072;6.582;2023-07-22T03:11:20;19.85;;;6.28;;
73456;SDS011;61691;53.072;6.582;2023-07-22T03:16:17;19.48;;;6.15;;
73456;SDS011;61691;53.072;6.582;2023-07-22T03:18:44;18.48;;;5.53;;
73456;SDS011;61691;53.072;6.582;2023-07-22T03:21:11;17.90;;;5.65;;
73456;SDS011;61691;53.072;6.582;2023-07-22T03:23:38;18.15;;;5.80;;
73456;SDS011;61691;53.072;6.582;2023-07-22T03:26:06;19.90;;;6.78;;
73456;SDS011;61691;53.072;6.582;2023-07-22T03:28:33;17.30;;;5.78;;
73456;SDS011;61691;53.072;6.582;2023-07-22T03:31:00;19.92;;;6.55;;
73456;SDS011;61691;53.072;6.582;2023-07-22T03:33:26;19.20;;;5.80;;
73456;SDS011;61691;53.072;6.582;2023-07-22T03:35:53;18.13;;;5.70;;
73456;SDS011;61691;53.072;6.582;2023-07-22T03:38:20;19.73;;;6.50;;
73456;SDS011;61691;53.072;6.582;2023-07-22T03:40:47;17.63;;;6.15;;
73456;SDS011;61691;53.072;6.582;2023-07-22T03:43:14;18.83;;;6.07;;
73456;SDS011;61691;53.072;6.582;2023-07-22T03:45:40;19.30;;;6.40;;
73456;SDS011;61691;53.072;6.582;2023-07-22T03:48:07;18.75;;;6.68;;
73456;SDS011;61691;53.072;6.582;2023-07-22T03:50:35;19.15;;;6.75;;
73456;SDS011;61691;53.072;6.582;2023-07-22T03:53:02;18.17;;;5.97;;
73456;SDS011;61691;53.072;6.582;2023-07-22T03:55:29;16.85;;;5.65;;
73456;SDS011;61691;53.072;6.582;2023-07-22T03:57:56;21.02;;;6.45;;
73456;SDS011;61691;53.072;6.582;2023-07-22T04:00:22;18.83;;;6.93;;
73456;SDS011;61691;53.072;6.582;2023-07-22T04:02:49;19.60;;;6.15;;
73456;SDS011;61691;53.072;6.582;2023-07-22T04:05:17;18.30;;;6.22;;
73456;SDS011;61691;53.072;6.582;2023-07-22T04:07:44;18.98;;;5.75;;
73456;SDS011;61691;53.072;6.582;2023-07-22T04:10:11;20.08;;;6.85;;
73456;SDS011;61691;53.072;6.582;2023-07-22T04:12:38;18.50;;;6.25;;
73456;SDS011;61691;53.072;6.582;2023-07-22T04:15:08;19.43;;;6.53;;
73456;SDS011;61691;53.072;6.582;2023-07-22T04:17:35;18.98;;;6.70;;
73456;SDS011;61691;53.072;6.582;2023-07-22T04:20:02;19.88;;;7.03;;
73456;SDS011;61691;53.072;6.582;2023-07-22T04:22:30;18.40;;;6.07;;
73456;SDS011;61691;53.072;6.582;2023-07-22T04:24:56;19.05;;;6.72;;
73456;SDS011;61691;53.072;6.582;2023-07-22T04:27:24;19.27;;;6.32;;
73456;SDS011;61691;53.072;6.582;2023-07-22T04:29:52;20.27;;;6.72;;
73456;SDS011;61691;53.072;6.582;2023-07-22T04:32:19;18.20;;;6.70;;
73456;SDS011;61691;53.072;6.582;2023-07-22T04:34:46;19.63;;;6.20;;
73456;SDS011;61691;53.072;6.582;2023-07-22T04:37:13;18.83;;;6.50;;
73456;SDS011;61691;53.072;6.582;2023-07-22T04:39:39;20.42;;;6.50;;
73456;SDS011;61691;53.072;6.582;2023-07-22T04:42:06;19.20;;;6.72;;
73456;SDS011;61691;53.072;6.582;2023-07-22T04:44:33;23.38;;;7.28;;
73456;SDS011;61691;53.072;6.582;2023-07-22T04:47:00;20.35;;;7.03;;
73456;SDS011;61691;53.072;6.582;2023-07-22T04:49:27;20.48;;;7.38;;
73456;SDS011;61691;53.072;6.582;2023-07-22T04:51:54;18.83;;;6.68;;
73456;SDS011;61691;53.072;6.582;2023-07-22T04:54:20;21.02;;;7.35;;
73456;SDS011;61691;53.072;6.582;2023-07-22T04:56:47;20.08;;;7.20;;
73456;SDS011;61691;53.072;6.582;2023-07-22T04:59:14;23.90;;;8.05;;
73456;SDS011;61691;53.072;6.582;2023-07-22T05:01:41;20.52;;;6.90;;
73456;SDS011;61691;53.072;6.582;2023-07-22T05:04:09;19.98;;;7.03;;
73456;SDS011;61691;53.072;6.582;2023-07-22T05:06:36;22.20;;;7.85;;
73456;SDS011;61691;53.072;6.582;2023-07-22T05:09:03;21.42;;;7.97;;
73456;SDS011;61691;53.072;6.582;2023-07-22T05:11:30;19.98;;;7.88;;
73456;SDS011;61691;53.072;6.582;2023-07-22T05:13:57;20.75;;;8.10;;
73456;SDS011;61691;53.072;6.582;2023-07-22T05:16:24;21.77;;;7.80;;
73456;SDS011;61691;53.072;6.582;2023-07-22T05:18:52;21.73;;;8.63;;
73456;SDS011;61691;53.072;6.582;2023-07-22T05:21:19;22.60;;;8.48;;
73456;SDS011;61691;53.072;6.582;2023-07-22T05:23:45;19.52;;;7.28;;
73456;SDS011;61691;53.072;6.582;2023-07-22T05:26:12;21.00;;;8.07;;
73456;SDS011;61691;53.072;6.582;2023-07-22T05:28:39;20.67;;;8.43;;
73456;SDS011;61691;53.072;6.582;2023-07-22T05:31:06;22.30;;;8.40;;
73456;SDS011;61691;53.072;6.582;2023-07-22T05:33:33;21.52;;;8.65;;
73456;SDS011;61691;53.072;6.582;2023-07-22T05:36:00;21.13;;;8.75;;
73456;SDS011;61691;53.072;6.582;2023-07-22T05:38:26;19.67;;;7.60;;
73456;SDS011;61691;53.072;6.582;2023-07-22T05:40:53;22.55;;;8.45;;
73456;SDS011;61691;53.072;6.582;2023-07-22T05:43:20;23.08;;;8.30;;
73456;SDS011;61691;53.072;6.582;2023-07-22T05:45:48;21.00;;;8.13;;
73456;SDS011;61691;53.072;6.582;2023-07-22T05:48:14;21.35;;;8.55;;
73456;SDS011;61691;53.072;6.582;2023-07-22T05:50:41;21.45;;;8.55;;
73456;SDS011;61691;53.072;6.582;2023-07-22T05:53:08;22.83;;;8.93;;
73456;SDS011;61691;53.072;6.582;2023-07-22T05:55:35;19.92;;;8.00;;
73456;SDS011;61691;53.072;6.582;2023-07-22T05:58:02;21.95;;;8.13;;
73456;SDS011;61691;53.072;6.582;2023-07-22T06:00:35;20.77;;;7.75;;
73456;SDS011;61691;53.072;6.582;2023-07-22T06:03:02;22.17;;;8.50;;
73456;SDS011;61691;53.072;6.582;2023-07-22T06:05:29;22.73;;;8.38;;
73456;SDS011;61691;53.072;6.582;2023-07-22T06:07:56;21.60;;;8.05;;
73456;SDS011;61691;53.072;6.582;2023-07-22T06:10:24;21.65;;;8.40;;
73456;SDS011;61691;53.072;6.582;2023-07-22T06:12:51;18.33;;;7.55;;
73456;SDS011;61691;53.072;6.582;2023-07-22T06:15:17;21.02;;;8.88;;
73456;SDS011;61691;53.072;6.582;2023-07-22T06:17:44;18.73;;;7.85;;
73456;SDS011;61691;53.072;6.582;2023-07-22T06:20:11;19.92;;;8.45;;
73456;SDS011;61691;53.072;6.582;2023-07-22T06:22:38;18.77;;;7.95;;
73456;SDS011;61691;53.072;6.582;2023-07-22T06:25:05;20.63;;;7.90;;
73456;SDS011;61691;53.072;6.582;2023-07-22T06:27:33;20.50;;;8.35;;
73456;SDS011;61691;53.072;6.582;2023-07-22T06:30:01;20.35;;;7.68;;
73456;SDS011;61691;53.072;6.582;2023-07-22T06:32:29;20.02;;;8.10;;
73456;SDS011;61691;53.072;6.582;2023-07-22T06:34:57;21.63;;;8.38;;
73456;SDS011;61691;53.072;6.582;2023-07-22T06:37:24;20.92;;;8.15;;
73456;SDS011;61691;53.072;6.582;2023-07-22T06:39:52;20.88;;;7.78;;
73456;SDS011;61691;53.072;6.582;2023-07-22T06:42:19;20.10;;;7.78;;
73456;SDS011;61691;53.072;6.582;2023-07-22T06:44:46;21.00;;;8.60;;
73456;SDS011;61691;53.072;6.582;2023-07-22T06:47:13;18.77;;;8.00;;
73456;SDS011;61691;53.072;6.582;2023-07-22T06:49:41;21.98;;;7.97;;
73456;SDS011;61691;53.072;6.582;2023-07-22T06:52:12;21.33;;;7.43;;
73456;SDS011;61691;53.072;6.582;2023-07-22T06:54:39;21.15;;;7.97;;
73456;SDS011;61691;53.072;6.582;2023-07-22T06:57:07;20.55;;;7.60;;
73456;SDS011;61691;53.072;6.582;2023-07-22T06:59:33;18.05;;;7.43;;
73456;SDS011;61691;53.072;6.582;2023-07-22T07:02:00;18.98;;;7.40;;
73456;SDS011;61691;53.072;6.582;2023-07-22T07:04:27;19.15;;;7.55;;
73456;SDS011;61691;53.072;6.582;2023-07-22T07:06:54;20.38;;;7.97;;
73456;SDS011;61691;53.072;6.582;2023-07-22T07:09:21;19.05;;;7.50;;
73456;SDS011;61691;53.072;6.582;2023-07-22T07:11:48;19.65;;;7.18;;
73456;SDS011;61691;53.072;6.582;2023-07-22T07:14:14;18.35;;;7.45;;
73456;SDS011;61691;53.072;6.582;2023-07-22T07:16:41;19.65;;;8.38;;
73456;SDS011;61691;53.072;6.582;2023-07-22T07:19:08;20.70;;;7.97;;
73456;SDS011;61691;53.072;6.582;2023-07-22T07:21:35;21.60;;;8.13;;
73456;SDS011;61691;53.072;6.582;2023-07-22T07:24:02;18.95;;;7.80;;
73456;SDS011;61691;53.072;6.582;2023-07-22T07:26:29;22.75;;;8.93;;
73456;SDS011;61691;53.072;6.582;2023-07-22T07:28:55;19.25;;;7.97;;
73456;SDS011;61691;53.072;6.582;2023-07-22T07:31:22;20.85;;;7.93;;
73456;SDS011;61691;53.072;6.582;2023-07-22T07:33:49;21.63;;;9.05;;
73456;SDS011;61691;53.072;6.582;2023-07-22T07:36:16;19.33;;;8.25;;
73456;SDS011;61691;53.072;6.582;2023-07-22T07:38:43;19.88;;;8.52;;
73456;SDS011;61691;53.072;6.582;2023-07-22T07:41:09;20.80;;;7.97;;
73456;SDS011;61691;53.072;6.582;2023-07-22T07:43:41;19.60;;;7.95;;
73456;SDS011;61691;53.072;6.582;2023-07-22T07:48:50;18.95;;;6.75;;
73456;SDS011;61691;53.072;6.582;2023-07-22T07:51:21;18.33;;;6.72;;
73456;SDS011;61691;53.072;6.582;2023-07-22T07:53:51;18.67;;;7.28;;
73456;SDS011;61691;53.072;6.582;2023-07-22T07:56:18;18.67;;;6.60;;
73456;SDS011;61691;53.072;6.582;2023-07-22T07:58:46;18.52;;;6.03;;
73456;SDS011;61691;53.072;6.582;2023-07-22T08:01:14;17.98;;;6.68;;
73456;SDS011;61691;53.072;6.582;2023-07-22T08:03:42;17.17;;;6.10;;
73456;SDS011;61691;53.072;6.582;2023-07-22T08:06:09;18.20;;;6.78;;
73456;SDS011;61691;53.072;6.582;2023-07-22T08:08:37;16.63;;;5.82;;
73456;SDS011;61691;53.072;6.582;2023-07-22T08:11:07;16.65;;;5.65;;
73456;SDS011;61691;53.072;6.582;2023-07-22T08:13:36;16.83;;;5.35;;
73456;SDS011;61691;53.072;6.582;2023-07-22T08:16:04;16.05;;;5.38;;
73456;SDS011;61691;53.072;6.582;2023-07-22T08:18:32;17.58;;;5.68;;
73456;SDS011;61691;53.072;6.582;2023-07-22T08:21:05;16.90;;;5.70;;
73456;SDS011;61691;53.072;6.582;2023-07-22T08:23:36;16.73;;;6.03;;
73456;SDS011;61691;53.072;6.582;2023-07-22T08:26:04;17.75;;;6.40;;
73456;SDS011;61691;53.072;6.582;2023-07-22T08:28:32;17.30;;;6.35;;
73456;SDS011;61691;53.072;6.582;2023-07-22T08:30:59;16.80;;;5.82;;
73456;SDS011;61691;53.072;6.582;2023-07-22T08:33:27;16.15;;;5.15;;
73456;SDS011;61691;53.072;6.582;2023-07-22T08:36:06;15.77;;;5.15;;
73456;SDS011;61691;53.072;6.582;2023-07-22T08:38:33;16.92;;;5.88;;
73456;SDS011;61691;53.072;6.582;2023-07-22T08:40:59;22.27;;;5.68;;
73456;SDS011;61691;53.072;6.582;2023-07-22T08:43:27;17.92;;;6.13;;
73456;SDS011;61691;53.072;6.582;2023-07-22T08:45:55;17.20;;;5.38;;
73456;SDS011;61691;53.072;6.582;2023-07-22T08:48:27;18.90;;;6.03;;
73456;SDS011;61691;53.072;6.582;2023-07-22T08:51:15;18.45;;;6.18;;
73456;SDS011;61691;53.072;6.582;2023-07-22T08:53:44;17.75;;;6.20;;
73456;SDS011;61691;53.072;6.582;2023-07-22T08:56:30;18.00;;;5.85;;
73456;SDS011;61691;53.072;6.582;2023-07-22T08:58:57;19.70;;;6.85;;
73456;SDS011;61691;53.072;6.582;2023-07-22T09:01:24;18.50;;;6.35;;
73456;SDS011;61691;53.072;6.582;2023-07-22T09:03:51;19.30;;;7.40;;
73456;SDS011;61691;53.072;6.582;2023-07-22T09:06:19;19.08;;;6.90;;
73456;SDS011;61691;53.072;6.582;2023-07-22T09:08:46;20.38;;;8.27;;
73456;SDS011;61691;53.072;6.582;2023-07-22T09:11:15;19.30;;;7.40;;
73456;SDS011;61691;53.072;6.582;2023-07-22T09:13:43;20.65;;;7.78;;
73456;SDS011;61691;53.072;6.582;2023-07-22T09:16:12;29.13;;;8.93;;
73456;SDS011;61691;53.072;6.582;2023-07-22T09:18:40;21.40;;;8.30;;
73456;SDS011;61691;53.072;6.582;2023-07-22T09:21:06;20.92;;;8.85;;
73456;SDS011;61691;53.072;6.582;2023-07-22T09:23:34;21.17;;;8.82;;
73456;SDS011;61691;53.072;6.582;2023-07-22T09:26:12;20.35;;;8.23;;
73456;SDS011;61691;53.072;6.582;2023-07-22T09:28:55;21.42;;;9.00;;
73456;SDS011;61691;53.072;6.582;2023-07-22T09:31:24;24.08;;;9.60;;
73456;SDS011;61691;53.072;6.582;2023-07-22T09:33:53;20.63;;;9.40;;
73456;SDS011;61691;53.072;6.582;2023-07-22T09:36:23;22.75;;;9.85;;
73456;SDS011;61691;53.072;6.582;2023-07-22T09:38:58;22.63;;;9.27;;
73456;SDS011;61691;53.072;6.582;2023-07-22T09:41:29;19.95;;;8.95;;
73456;SDS011;61691;53.072;6.582;2023-07-22T09:43:57;21.27;;;9.13;;
73456;SDS011;61691;53.072;6.582;2023-07-22T09:46:31;22.98;;;8.85;;
73456;SDS011;61691;53.072;6.582;2023-07-22T09:49:05;22.77;;;8.80;;
73456;SDS011;61691;53.072;6.582;2023-07-22T09:51:34;22.10;;;9.13;;
73456;SDS011;61691;53.072;6.582;2023-07-22T09:54:22;22.48;;;9.25;;
73456;SDS011;61691;53.072;6.582;2023-07-22T09:56:49;22.73;;;8.52;;
73456;SDS011;61691;53.072;6.582;2023-07-22T09:59:19;21.20;;;8.48;;
73456;SDS011;61691;53.072;6.582;2023-07-22T10:01:49;20.55;;;7.03;;
73456;SDS011;61691;53.072;6.582;2023-07-22T10:04:18;19.60;;;7.30;;
73456;SDS011;61691;53.072;6.582;2023-07-22T10:06:48;17.65;;;5.95;;
73456;SDS011;61691;53.072;6.582;2023-07-22T10:09:15;18.48;;;5.53;;
73456;SDS011;61691;53.072;6.582;2023-07-22T10:11:43;16.65;;;5.03;;
73456;SDS011;61691;53.072;6.582;2023-07-22T10:14:10;16.85;;;4.88;;
73456;SDS011;61691;53.072;6.582;2023-07-22T10:16:39;15.88;;;5.07;;
73456;SDS011;61691;53.072;6.582;2023-07-22T10:19:06;14.50;;;4.30;;
73456;SDS011;61691;53.072;6.582;2023-07-22T10:21:35;14.48;;;3.75;;
73456;SDS011;61691;53.072;6.582;2023-07-22T10:24:04;14.77;;;4.03;;
73456;SDS011;61691;53.072;6.582;2023-07-22T10:26:32;13.93;;;3.67;;
73456;SDS011;61691;53.072;6.582;2023-07-22T10:29:13;14.48;;;4.03;;
73456;SDS011;61691;53.072;6.582;2023-07-22T10:31:40;14.93;;;4.35;;
73456;SDS011;61691;53.072;6.582;2023-07-22T10:34:08;15.93;;;4.63;;
73456;SDS011;61691;53.072;6.582;2023-07-22T10:36:35;15.15;;;4.88;;
73456;SDS011;61691;53.072;6.582;2023-07-22T10:39:02;17.35;;;4.75;;
73456;SDS011;61691;53.072;6.582;2023-07-22T10:41:31;16.75;;;5.32;;
73456;SDS011;61691;53.072;6.582;2023-07-22T10:43:59;15.38;;;4.93;;
73456;SDS011;61691;53.072;6.582;2023-07-22T10:46:33;17.25;;;5.00;;
73456;SDS011;61691;53.072;6.582;2023-07-22T10:49:11;16.55;;;4.93;;
73456;SDS011;61691;53.072;6.582;2023-07-22T10:51:49;15.80;;;5.28;;
73456;SDS011;61691;53.072;6.582;2023-07-22T10:54:33;18.95;;;5.60;;
73456;SDS011;61691;53.072;6.582;2023-07-22T10:57:03;18.15;;;6.03;;
73456;SDS011;61691;53.072;6.582;2023-07-22T10:59:51;16.42;;;5.88;;
73456;SDS011;61691;53.072;6.582;2023-07-22T11:02:25;16.15;;;5.65;;
73456;SDS011;61691;53.072;6.582;2023-07-22T11:04:57;16.20;;;5.18;;
73456;SDS011;61691;53.072;6.582;2023-07-22T11:07:33;16.17;;;5.07;;
73456;SDS011;61691;53.072;6.582;2023-07-22T11:10:15;15.75;;;5.28;;
73456;SDS011;61691;53.072;6.582;2023-07-22T11:12:43;17.10;;;5.20;;
73456;SDS011;61691;53.072;6.582;2023-07-22T11:15:11;16.55;;;5.57;;
73456;SDS011;61691;53.072;6.582;2023-07-22T11:20:08;18.42;;;5.78;;
73456;SDS011;61691;53.072;6.582;2023-07-22T11:22:38;18.13;;;6.35;;
73456;SDS011;61691;53.072;6.582;2023-07-22T11:25:07;17.58;;;6.68;;
73456;SDS011;61691;53.072;6.582;2023-07-22T11:27:34;19.27;;;6.50;;
73456;SDS011;61691;53.072;6.582;2023-07-22T11:30:02;19.77;;;6.88;;
73456;SDS011;61691;53.072;6.582;2023-07-22T11:32:31;17.25;;;6.85;;
73456;SDS011;61691;53.072;6.582;2023-07-22T11:34:59;19.90;;;7.28;;
73456;SDS011;61691;53.072;6.582;2023-07-22T11:37:27;18.40;;;7.10;;
73456;SDS011;61691;53.072;6.582;2023-07-22T11:39:59;18.33;;;7.45;;
73456;SDS011;61691;53.072;6.582;2023-07-22T11:42:27;19.02;;;7.90;;
73456;SDS011;61691;53.072;6.582;2023-07-22T11:44:55;19.08;;;7.93;;
73456;SDS011;61691;53.072;6.582;2023-07-22T11:47:28;19.85;;;7.97;;
73456;SDS011;61691;53.072;6.582;2023-07-22T11:49:56;21.42;;;8.57;;
73456;SDS011;61691;53.072;6.582;2023-07-22T11:52:24;19.10;;;8.27;;
73456;SDS011;61691;53.072;6.582;2023-07-22T11:54:51;19.73;;;9.75;;
73456;SDS011;61691;53.072;6.582;2023-07-22T11:57:19;20.25;;;9.80;;
73456;SDS011;61691;53.072;6.582;2023-07-22T11:59:48;19.60;;;9.18;;
73456;SDS011;61691;53.072;6.582;2023-07-22T12:02:25;20.23;;;8.80;;
73456;SDS011;61691;53.072;6.582;2023-07-22T12:07:31;19.40;;;8.68;;
73456;SDS011;61691;53.072;6.582;2023-07-22T12:10:03;22.17;;;9.25;;
73456;SDS011;61691;53.072;6.582;2023-07-22T12:12:35;21.85;;;8.60;;
73456;SDS011;61691;53.072;6.582;2023-07-22T12:15:08;18.92;;;7.60;;
73456;SDS011;61691;53.072;6.582;2023-07-22T12:20:25;19.85;;;7.25;;
73456;SDS011;61691;53.072;6.582;2023-07-22T12:22:53;18.80;;;7.80;;
73456;SDS011;61691;53.072;6.582;2023-07-22T12:25:21;18.38;;;7.65;;
73456;SDS011;61691;53.072;6.582;2023-07-22T12:27:48;19.50;;;7.32;;
73456;SDS011;61691;53.072;6.582;2023-07-22T12:30:15;19.15;;;7.43;;
73456;SDS011;61691;53.072;6.582;2023-07-22T12:32:45;19.02;;;7.60;;
73456;SDS011;61691;53.072;6.582;2023-07-22T12:35:12;18.40;;;7.13;;
73456;SDS011;61691;53.072;6.582;2023-07-22T12:37:41;18.10;;;7.25;;
73456;SDS011;61691;53.072;6.582;2023-07-22T12:40:08;17.70;;;6.57;;
73456;SDS011;61691;53.072;6.582;2023-07-22T12:42:35;20.00;;;7.28;;
73456;SDS011;61691;53.072;6.582;2023-07-22T12:45:03;18.33;;;6.97;;
73456;SDS011;61691;53.072;6.582;2023-07-22T12:47:31;19.52;;;6.70;;
73456;SDS011;61691;53.072;6.582;2023-07-22T12:49:58;18.85;;;7.78;;
73456;SDS011;61691;53.072;6.582;2023-07-22T12:52:25;19.48;;;7.53;;
73456;SDS011;61691;53.072;6.582;2023-07-22T12:54:52;18.33;;;7.40;;
73456;SDS011;61691;53.072;6.582;2023-07-22T12:57:19;17.85;;;6.60;;
73456;SDS011;61691;53.072;6.582;2023-07-22T12:59:45;20.83;;;7.53;;
73456;SDS011;61691;53.072;6.582;2023-07-22T13:02:14;16.98;;;7.13;;
73456;SDS011;61691;53.072;6.582;2023-07-22T13:04:41;16.65;;;7.28;;
73456;SDS011;61691;53.072;6.582;2023-07-22T13:07:10;20.33;;;8.10;;
73456;SDS011;61691;53.072;6.582;2023-07-22T13:09:37;20.27;;;8.18;;
73456;SDS011;61691;53.072;6.582;2023-07-22T13:12:04;19.38;;;7.97;;
73456;SDS011;61691;53.072;6.582;2023-07-22T13:14:31;19.92;;;8.50;;
73456;SDS011;61691;53.072;6.582;2023-07-22T13:16:58;20.25;;;8.90;;
73456;SDS011;61691;53.072;6.582;2023-07-22T13:19:25;18.70;;;8.35;;
73456;SDS011;61691;53.072;6.582;2023-07-22T13:21:52;19.55;;;9.07;;
73456;SDS011;61691;53.072;6.582;2023-07-22T13:24:18;20.33;;;9.20;;
73456;SDS011;61691;53.072;6.582;2023-07-22T13:26:45;19.08;;;8.93;;
73456;SDS011;61691;53.072;6.582;2023-07-22T13:29:12;19.48;;;8.70;;
73456;SDS011;61691;53.072;6.582;2023-07-22T13:31:39;20.27;;;8.95;;
73456;SDS011;61691;53.072;6.582;2023-07-22T13:34:05;19.77;;;8.40;;
73456;SDS011;61691;53.072;6.582;2023-07-22T13:36:32;21.10;;;9.00;;
73456;SDS011;61691;53.072;6.582;2023-07-22T13:38:59;19.52;;;8.15;;
73456;SDS011;61691;53.072;6.582;2023-07-22T13:41:26;19.55;;;8.13;;
73456;SDS011;61691;53.072;6.582;2023-07-22T13:43:53;18.45;;;7.72;;
73456;SDS011;61691;53.072;6.582;2023-07-22T13:46:19;18.65;;;7.68;;
73456;SDS011;61691;53.072;6.582;2023-07-22T13:48:47;17.63;;;6.88;;
73456;SDS011;61691;53.072;6.582;2023-07-22T13:51:14;17.10;;;6.60;;
73456;SDS011;61691;53.072;6.582;2023-07-22T13:53:41;18.05;;;6.18;;
73456;SDS011;61691;53.072;6.582;2023-07-22T13:56:08;16.27;;;5.63;;
73456;SDS011;61691;53.072;6.582;2023-07-22T13:58:35;23.77;;;5.68;;
73456;SDS011;61691;53.072;6.582;2023-07-22T14:01:01;16.33;;;6.00;;
73456;SDS011;61691;53.072;6.582;2023-07-22T14:03:29;15.65;;;5.53;;
73456;SDS011;61691;53.072;6.582;2023-07-22T14:05:56;16.23;;;5.80;;
73456;SDS011;61691;53.072;6.582;2023-07-22T14:08:23;18.17;;;5.50;;
73456;SDS011;61691;53.072;6.582;2023-07-22T14:10:50;17.67;;;5.55;;
73456;SDS011;61691;53.072;6.582;2023-07-22T14:13:17;15.15;;;5.10;;
73456;SDS011;61691;53.072;6.582;2023-07-22T14:15:43;17.38;;;5.55;;
73456;SDS011;61691;53.072;6.582;2023-07-22T14:18:10;20.10;;;5.78;;
73456;SDS011;61691;53.072;6.582;2023-07-22T14:20:37;17.30;;;4.93;;
73456;SDS011;61691;53.072;6.582;2023-07-22T14:23:04;16.42;;;4.97;;
73456;SDS011;61691;53.072;6.582;2023-07-22T14:25:31;17.17;;;5.05;;
73456;SDS011;61691;53.072;6.582;2023-07-22T14:27:57;15.45;;;4.90;;
73456;SDS011;61691;53.072;6.582;2023-07-22T14:30:24;17.25;;;5.38;;
73456;SDS011;61691;53.072;6.582;2023-07-22T14:32:51;16.25;;;4.80;;
73456;SDS011;61691;53.072;6.582;2023-07-22T14:35:18;15.73;;;5.10;;
73456;SDS011;61691;53.072;6.582;2023-07-22T14:37:45;16.23;;;4.88;;
73456;SDS011;61691;53.072;6.582;2023-07-22T14:40:13;15.18;;;4.90;;
73456;SDS011;61691;53.072;6.582;2023-07-22T14:42:40;16.20;;;4.50;;
73456;SDS011;61691;53.072;6.582;2023-07-22T14:45:07;17.67;;;5.20;;
73456;SDS011;61691;53.072;6.582;2023-07-22T14:47:34;17.13;;;4.82;;
73456;SDS011;61691;53.072;6.582;2023-07-22T14:50:01;15.90;;;5.10;;